createdAt,value
2022-09-26T00:01:49.526Z,11.53
2022-09-26T00:04:35.592Z,10.53
2022-09-26T00:07:21.437Z,11.87
2022-09-26T00:10:08.775Z,12.37
2022-09-26T00:12:55.754Z,11.10
2022-09-26T00:15:41.742Z,11.70
2022-09-26T00:18:28.910Z,10.70
2022-09-26T00:21:15.067Z,11.63
2022-09-26T00:24:01.422Z,13.73
2022-09-26T00:26:47.955Z,14.50
2022-09-26T00:29:33.886Z,15.13
2022-09-26T00:32:19.789Z,9.60
2022-09-26T00:35:05.931Z,12.20
2022-09-26T00:37:54.236Z,13.43
2022-09-26T00:40:39.937Z,12.77
2022-09-26T00:43:35.316Z,11.53
2022-09-26T00:46:35.802Z,11.87
2022-09-26T00:49:21.629Z,12.30
2022-09-26T00:52:12.357Z,13.90
2022-09-26T00:54:59.925Z,14.60
2022-09-26T00:57:49.578Z,15.03
2022-09-26T01:00:35.516Z,15.53
2022-09-26T01:03:22.761Z,16.33
2022-09-26T01:06:09.257Z,15.10
2022-09-26T01:09:00.116Z,14.00
2022-09-26T01:11:47.321Z,14.53
2022-09-26T01:14:39.798Z,11.67
2022-09-26T01:17:27.956Z,11.20
2022-09-26T01:20:23.142Z,11.73
2022-09-26T01:23:16.914Z,11.57
2022-09-26T01:26:12.298Z,14.77
2022-09-26T01:29:14.882Z,11.53
2022-09-26T01:32:35.053Z,11.63
2022-09-26T01:35:21.753Z,9.23
2022-09-26T01:38:24.451Z,13.80
2022-09-26T01:41:20.148Z,14.33
2022-09-26T01:44:10.150Z,14.53
2022-09-26T01:46:57.021Z,13.10
2022-09-26T01:49:43.438Z,12.33
2022-09-26T01:52:30.038Z,13.10
2022-09-26T01:55:25.209Z,12.20
2022-09-26T01:58:20.081Z,15.63
2022-09-26T02:01:10.623Z,12.73
2022-09-26T02:04:02.250Z,12.17
2022-09-26T02:06:51.331Z,11.43
2022-09-26T02:09:40.732Z,11.50
2022-09-26T02:12:33.021Z,10.47
2022-09-26T02:15:20.925Z,11.93
2022-09-26T02:18:13.637Z,15.00
2022-09-26T02:21:12.940Z,13.10
2022-09-26T02:23:58.808Z,15.50
2022-09-26T02:26:45.046Z,13.27
2022-09-26T02:29:32.513Z,14.47
2022-09-26T02:32:20.505Z,15.93
2022-09-26T02:35:27.696Z,13.03
2022-09-26T02:38:14.132Z,13.90
2022-09-26T02:41:29.511Z,13.40
2022-09-26T02:44:25.709Z,13.77
2022-09-26T02:47:26.864Z,13.43
2022-09-26T02:50:18.916Z,15.20
2022-09-26T02:53:13.701Z,13.20
2022-09-26T02:56:07.228Z,12.80
2022-09-26T02:59:01.383Z,13.93
2022-09-26T03:02:17.780Z,15.97
2022-09-26T03:05:17.665Z,14.77
2022-09-26T03:08:05.515Z,13.27
2022-09-26T03:10:52.378Z,14.67
2022-09-26T03:13:39.393Z,14.83
2022-09-26T03:16:27.184Z,11.23
2022-09-26T03:19:29.609Z,15.00
2022-09-26T03:22:16.408Z,12.00
2022-09-26T03:25:01.974Z,11.73
2022-09-26T03:27:47.917Z,11.40
2022-09-26T03:30:34.067Z,14.93
2022-09-26T03:33:49.328Z,14.17
2022-09-26T03:36:35.229Z,13.67
2022-09-26T03:39:22.479Z,11.93
2022-09-26T03:42:20.517Z,15.60
2022-09-26T03:45:08.169Z,14.97
2022-09-26T03:48:13.777Z,14.80
2022-09-26T03:51:04.065Z,12.73
2022-09-26T03:53:50.336Z,13.10
2022-09-26T03:56:41.081Z,16.23
2022-09-26T03:59:27.118Z,16.63
2022-09-26T04:02:13.863Z,15.63
2022-09-26T04:05:04.075Z,17.47
2022-09-26T04:07:50.075Z,14.73
2022-09-26T04:10:35.662Z,12.77
2022-09-26T04:13:46.922Z,14.33
2022-09-26T04:16:27.804Z,12.13
2022-09-26T04:19:20.616Z,15.87
2022-09-26T04:22:08.164Z,14.70
2022-09-26T04:24:54.551Z,12.30
2022-09-26T04:27:41.199Z,18.80
2022-09-26T04:30:27.004Z,16.53
2022-09-26T04:33:16.792Z,13.37
2022-09-26T04:36:20.130Z,13.50
2022-09-26T04:39:06.069Z,16.03
2022-09-26T04:41:53.143Z,14.87
2022-09-26T04:44:40.397Z,15.63
2022-09-26T04:47:26.210Z,16.60
2022-09-26T04:50:31.737Z,16.77
2022-09-26T04:53:24.931Z,15.47
2022-09-26T04:56:21.069Z,14.50
2022-09-26T04:59:07.130Z,18.63
2022-09-26T05:02:06.801Z,14.80
2022-09-26T05:04:59.935Z,17.80
2022-09-26T05:07:45.669Z,18.20
2022-09-26T05:10:32.846Z,22.93
2022-09-26T05:13:21.383Z,20.40
2022-09-26T05:16:08.729Z,16.57
2022-09-26T05:18:55.863Z,18.07
2022-09-26T05:21:43.121Z,17.37
2022-09-26T05:24:47.495Z,15.40
2022-09-26T05:27:33.799Z,23.67
2022-09-26T05:30:19.701Z,16.00
2022-09-26T05:33:05.831Z,19.30
2022-09-26T05:35:53.247Z,19.10
2022-09-26T05:38:39.837Z,18.93
2022-09-26T05:41:29.324Z,15.83
2022-09-26T05:44:15.877Z,15.83
2022-09-26T05:47:01.655Z,18.50
2022-09-26T05:49:47.236Z,17.00
2022-09-26T05:52:36.341Z,16.93
2022-09-26T05:55:22.347Z,21.77
2022-09-26T05:58:40.801Z,19.60
2022-09-26T06:01:49.738Z,17.70
2022-09-26T06:04:52.015Z,15.10
2022-09-26T06:08:02.787Z,14.30
2022-09-26T06:11:15.912Z,15.40
2022-09-26T06:14:01.778Z,16.50
2022-09-26T06:16:47.612Z,14.13
2022-09-26T06:19:33.378Z,16.00
2022-09-26T06:22:18.847Z,18.83
2022-09-26T06:25:04.935Z,19.93
2022-09-26T06:27:51.009Z,16.80
2022-09-26T06:30:36.888Z,20.20
2022-09-26T06:33:33.584Z,14.30
2022-09-26T06:36:35.791Z,15.07
2022-09-26T06:39:21.336Z,16.93
2022-09-26T06:42:07.905Z,16.87
2022-09-26T06:45:06.856Z,17.30
2022-09-26T06:48:13.167Z,18.67
2022-09-26T06:51:31.794Z,15.83
2022-09-26T06:54:18.477Z,19.43
2022-09-26T06:57:04.201Z,16.03
2022-09-26T06:59:51.997Z,17.87
2022-09-26T07:02:53.074Z,16.30
2022-09-26T07:05:58.301Z,21.70
2022-09-26T07:09:01.465Z,18.40
2022-09-26T07:12:14.548Z,18.23
2022-09-26T07:15:01.111Z,17.23
2022-09-26T07:17:50.204Z,17.33
2022-09-26T07:20:57.708Z,17.50
2022-09-26T07:24:06.099Z,22.13
2022-09-26T07:26:51.984Z,21.40
2022-09-26T07:29:38.373Z,14.57
2022-09-26T07:32:25.565Z,20.97
2022-09-26T07:35:35.979Z,16.07
2022-09-26T07:38:21.685Z,15.67
2022-09-26T07:41:11.170Z,13.37
2022-09-26T07:47:24.114Z,13.20
2022-09-26T07:50:16.707Z,20.43
2022-09-26T07:53:21.574Z,13.30
2022-09-26T07:56:27.384Z,13.47
2022-09-26T07:59:35.660Z,18.90
2022-09-26T08:03:01.056Z,13.20
2022-09-26T08:05:48.081Z,13.03
2022-09-26T08:08:34.281Z,11.73
2022-09-26T08:11:20.734Z,16.27
2022-09-26T08:14:26.443Z,14.17
2022-09-26T08:17:34.099Z,13.97
2022-09-26T08:20:21.353Z,12.20
2022-09-26T08:23:10.402Z,12.80
2022-09-26T08:25:56.279Z,18.90
2022-09-26T08:28:52.689Z,12.77
2022-09-26T08:31:38.894Z,13.30
2022-09-26T08:34:25.817Z,12.50
2022-09-26T08:37:30.986Z,11.80
2022-09-26T08:40:45.926Z,12.73
2022-09-26T08:44:04.264Z,13.00
2022-09-26T08:47:29.696Z,17.13
2022-09-26T08:50:33.103Z,12.83
2022-09-26T08:53:21.129Z,16.50
2022-09-26T08:56:19.658Z,10.80
2022-09-26T08:59:09.578Z,17.63
2022-09-26T09:01:57.183Z,11.27
2022-09-26T09:04:59.085Z,10.30
2022-09-26T09:07:49.222Z,13.00
2022-09-26T09:10:42.065Z,8.57
2022-09-26T09:13:58.508Z,13.67
2022-09-26T09:17:08.378Z,11.40
2022-09-26T09:20:26.770Z,11.57
2022-09-26T09:23:42.078Z,8.40
2022-09-26T09:29:50.603Z,9.00
2022-09-26T09:33:12.734Z,7.50
2022-09-26T09:36:07.595Z,7.63
2022-09-26T09:39:37.087Z,9.07
2022-09-26T09:42:43.660Z,9.20
2022-09-26T09:45:31.559Z,7.27
2022-09-26T09:48:17.436Z,9.03
2022-09-26T09:51:19.449Z,7.10
2022-09-26T09:54:22.374Z,7.07
2022-09-26T09:57:27.371Z,8.03
2022-09-26T10:00:17.827Z,9.67
2022-09-26T10:03:37.914Z,5.30
2022-09-26T10:06:44.195Z,4.80
2022-09-26T10:09:40.308Z,6.80
2022-09-26T10:12:45.205Z,5.73
2022-09-26T10:16:03.165Z,5.33
2022-09-26T10:19:08.005Z,4.63
2022-09-26T10:21:54.197Z,5.37
2022-09-26T10:24:43.335Z,5.83
2022-09-26T10:27:38.044Z,4.90
2022-09-26T10:30:33.011Z,7.10
2022-09-26T10:33:28.131Z,8.37
2022-09-26T10:36:31.985Z,4.50
2022-09-26T10:39:36.266Z,4.60
2022-09-26T10:42:27.514Z,4.57
2022-09-26T10:45:20.356Z,4.77
2022-09-26T10:48:38.265Z,4.97
2022-09-26T10:52:00.953Z,3.50
2022-09-26T10:54:55.321Z,6.20
2022-09-26T10:57:46.555Z,4.83
2022-09-26T11:00:37.149Z,3.43
2022-09-26T11:03:34.216Z,3.47
2022-09-26T11:06:43.904Z,7.10
2022-09-26T11:09:42.318Z,4.00
2022-09-26T11:12:57.905Z,4.03
2022-09-26T11:16:01.117Z,3.63
2022-09-26T11:19:01.212Z,5.10
2022-09-26T11:22:08.326Z,3.73
2022-09-26T11:24:59.298Z,3.80
2022-09-26T11:27:49.248Z,4.47
2022-09-26T11:30:48.118Z,6.63
2022-09-26T11:33:45.026Z,5.47
2022-09-26T11:37:15.585Z,5.13
2022-09-26T11:40:10.828Z,5.13
2022-09-26T11:43:08.393Z,5.33
2022-09-26T11:46:15.164Z,6.00
2022-09-26T11:49:15.939Z,5.17
2022-09-26T11:52:29.569Z,6.47
2022-09-26T11:55:29.174Z,5.77
2022-09-26T11:58:23.430Z,6.47
2022-09-26T12:01:27.500Z,4.13
2022-09-26T12:04:27.382Z,5.13
2022-09-26T12:07:32.048Z,4.07
2022-09-26T12:10:25.114Z,4.87
2022-09-26T12:13:11.992Z,4.90
2022-09-26T12:16:09.273Z,4.10
2022-09-26T12:19:05.998Z,5.20
2022-09-26T12:22:30.308Z,4.33
2022-09-26T12:25:22.768Z,4.37
2022-09-26T12:28:11.692Z,4.27
2022-09-26T12:31:19.893Z,4.10
2022-09-26T12:34:13.280Z,4.10
2022-09-26T12:37:01.720Z,3.87
2022-09-26T12:40:09.276Z,4.53
2022-09-26T12:42:55.154Z,8.33
2022-09-26T12:45:42.121Z,4.23
2022-09-26T12:48:35.291Z,4.17
2022-09-26T12:51:23.904Z,4.20
2022-09-26T12:54:33.177Z,4.10
2022-09-26T12:57:26.495Z,4.93
2022-09-26T13:00:22.979Z,3.80
2022-09-26T13:03:09.679Z,4.43
2022-09-26T13:05:58.687Z,4.07
2022-09-26T13:09:03.378Z,4.00
2022-09-26T13:11:50.670Z,4.20
2022-09-26T13:14:57.158Z,4.90
2022-09-26T13:17:45.961Z,4.03
2022-09-26T13:20:43.719Z,4.10
2022-09-26T13:23:38.313Z,3.57
2022-09-26T13:26:25.993Z,4.60
2022-09-26T13:29:20.920Z,4.10
2022-09-26T13:32:29.772Z,3.00
2022-09-26T13:35:20.455Z,3.33
2022-09-26T13:38:29.499Z,3.50
2022-09-26T13:41:33.627Z,3.73
2022-09-26T13:44:25.072Z,4.73
2022-09-26T13:47:22.379Z,3.30
2022-09-26T13:50:25.765Z,4.40
2022-09-26T13:53:40.801Z,3.87
2022-09-26T13:56:36.345Z,4.50
2022-09-26T13:59:51.343Z,3.27
2022-09-26T14:02:37.287Z,3.17
2022-09-26T14:05:22.994Z,3.00
2022-09-26T14:08:46.436Z,5.83
2022-09-26T14:11:46.229Z,3.60
2022-09-26T14:14:46.055Z,2.70
2022-09-26T14:17:44.276Z,4.13
2022-09-26T14:20:34.666Z,5.13
2022-09-26T14:23:35.692Z,4.73
2022-09-26T14:26:28.220Z,4.50
2022-09-26T14:29:29.472Z,3.20
2022-09-26T14:32:20.376Z,3.33
2022-09-26T14:35:20.516Z,3.57
2022-09-26T14:38:13.368Z,3.60
2022-09-26T14:41:00.377Z,3.67
2022-09-26T14:43:47.549Z,3.37
2022-09-26T14:46:35.702Z,5.73
2022-09-26T14:49:24.233Z,3.70
2022-09-26T14:52:18.619Z,10.00
2022-09-26T14:55:06.025Z,3.80
2022-09-26T14:57:51.833Z,3.47
2022-09-26T15:00:40.592Z,7.77
2022-09-26T15:03:26.329Z,4.23
2022-09-26T15:06:12.964Z,4.10
2022-09-26T15:08:59.895Z,3.00
2022-09-26T15:11:48.683Z,3.50
2022-09-26T15:14:45.728Z,4.20
2022-09-26T15:17:39.116Z,4.27
2022-09-26T15:20:25.349Z,4.40
2022-09-26T15:23:20.559Z,3.10
2022-09-26T15:26:06.543Z,4.30
2022-09-26T15:28:52.950Z,2.90
2022-09-26T15:31:40.820Z,3.37
2022-09-26T15:34:33.119Z,3.37
2022-09-26T15:37:21.911Z,3.53
2022-09-26T15:40:23.060Z,3.17
2022-09-26T15:43:14.973Z,4.53
2022-09-26T15:46:05.998Z,3.53
2022-09-26T15:48:55.070Z,2.60
2022-09-26T15:51:42.321Z,3.40
2022-09-26T15:54:29.688Z,4.43
2022-09-26T15:57:16.750Z,2.97
2022-09-26T16:00:02.987Z,2.70
2022-09-26T16:02:50.646Z,3.60
2022-09-26T16:05:36.487Z,2.90
2022-09-26T16:08:36.416Z,3.07
2022-09-26T16:11:22.105Z,4.23
2022-09-26T16:14:16.359Z,2.90
2022-09-26T16:17:11.902Z,2.30
2022-09-26T16:20:02.142Z,2.80
2022-09-26T16:22:51.423Z,2.43
2022-09-26T16:25:56.300Z,2.97
2022-09-26T16:28:44.597Z,3.30
2022-09-26T16:31:51.836Z,2.70
2022-09-26T16:34:37.521Z,3.13
2022-09-26T16:37:23.209Z,3.00
2022-09-26T16:40:17.822Z,2.80
2022-09-26T16:43:18.751Z,3.80
2022-09-26T16:46:09.067Z,2.50
2022-09-26T16:48:55.839Z,3.13
2022-09-26T16:51:42.915Z,3.07
2022-09-26T16:54:28.465Z,2.70
2022-09-26T16:57:19.077Z,4.27
2022-09-26T17:00:46.810Z,2.87
2022-09-26T17:03:36.491Z,2.90
2022-09-26T17:06:22.166Z,2.30
2022-09-26T17:09:14.044Z,3.27
2022-09-26T17:12:04.038Z,2.70
2022-09-26T17:14:51.913Z,2.90
2022-09-26T17:17:38.260Z,2.63
2022-09-26T17:20:23.929Z,3.67
2022-09-26T17:23:34.842Z,3.07
2022-09-26T17:26:20.047Z,3.07
2022-09-26T17:29:07.288Z,4.13
2022-09-26T17:31:54.218Z,3.00
2022-09-26T17:34:39.846Z,2.60
2022-09-26T17:37:26.480Z,3.50
2022-09-26T17:40:18.930Z,3.43
2022-09-26T17:43:06.452Z,6.07
2022-09-26T17:45:52.481Z,5.07
2022-09-26T17:48:40.372Z,2.70
2022-09-26T17:51:26.269Z,3.50
2022-09-26T17:54:16.555Z,4.90
2022-09-26T17:57:02.618Z,7.40
2022-09-26T17:59:49.889Z,2.87
2022-09-26T18:02:43.749Z,3.07
2022-09-26T18:05:31.560Z,5.07
2022-09-26T18:08:21.491Z,3.43
2022-09-26T18:11:09.679Z,2.80
2022-09-26T18:13:55.664Z,5.90
2022-09-26T18:16:46.681Z,4.50
2022-09-26T18:19:32.232Z,3.50
2022-09-26T18:22:18.773Z,4.07
2022-09-26T18:25:10.062Z,5.33
2022-09-26T18:27:56.820Z,4.47
2022-09-26T18:30:45.634Z,3.83
2022-09-26T18:33:35.786Z,4.67
2022-09-26T18:36:23.493Z,5.30
2022-09-26T18:39:10.504Z,4.03
2022-09-26T18:41:58.945Z,6.13
2022-09-26T18:44:44.528Z,6.90
2022-09-26T18:47:33.446Z,4.70
2022-09-26T18:50:24.338Z,4.40
2022-09-26T18:53:14.555Z,5.47
2022-09-26T18:56:18.811Z,5.80
2022-09-26T18:59:04.954Z,5.40
2022-09-26T19:01:51.951Z,4.60
2022-09-26T19:04:38.987Z,3.93
2022-09-26T19:07:25.191Z,20.13
2022-09-26T19:10:16.655Z,5.90
2022-09-26T19:13:02.604Z,5.93
2022-09-26T19:15:48.492Z,8.80
2022-09-26T19:18:34.412Z,9.63
2022-09-26T19:21:32.638Z,3.87
2022-09-26T19:24:22.438Z,5.10
2022-09-26T19:27:11.599Z,4.27
2022-09-26T19:30:08.558Z,4.50
2022-09-26T19:32:56.547Z,4.37
2022-09-26T19:35:42.732Z,3.40
2022-09-26T19:38:28.703Z,4.83
2022-09-26T19:41:15.993Z,3.40
2022-09-26T19:44:01.808Z,5.23
2022-09-26T19:46:49.144Z,5.07
2022-09-26T19:49:34.706Z,4.90
2022-09-26T19:52:21.123Z,4.30
2022-09-26T19:55:12.298Z,3.60
2022-09-26T19:58:04.993Z,5.37
2022-09-26T20:01:00.752Z,4.60
2022-09-26T20:03:47.083Z,3.83
2022-09-26T20:06:32.734Z,3.37
2022-09-26T20:09:19.397Z,3.27
2022-09-26T20:12:05.067Z,3.40
2022-09-26T20:14:51.959Z,3.80
2022-09-26T20:17:38.164Z,3.50
2022-09-26T20:20:25.366Z,3.73
2022-09-26T20:23:18.811Z,8.23
2022-09-26T20:26:04.352Z,5.67
2022-09-26T20:28:50.151Z,3.07
2022-09-26T20:31:36.003Z,4.53
2022-09-26T20:34:21.739Z,4.23
2022-09-26T20:37:09.883Z,4.40
2022-09-26T20:39:55.946Z,3.60
2022-09-26T20:42:45.043Z,3.43
2022-09-26T20:45:40.060Z,3.90
2022-09-26T20:48:27.225Z,4.33
2022-09-26T20:51:18.655Z,3.30
2022-09-26T20:54:06.459Z,5.30
2022-09-26T20:56:53.265Z,3.50
2022-09-26T20:59:41.715Z,4.70
2022-09-26T21:02:32.803Z,3.30
2022-09-26T21:05:27.148Z,2.80
2022-09-26T21:08:24.512Z,4.17
2022-09-26T21:11:12.759Z,4.30
2022-09-26T21:13:58.354Z,3.17
2022-09-26T21:16:46.055Z,2.90
2022-09-26T21:19:32.571Z,3.20
2022-09-26T21:22:27.852Z,3.50
2022-09-26T21:25:20.744Z,3.57
2022-09-26T21:28:14.018Z,6.63
2022-09-26T21:31:03.040Z,3.33
2022-09-26T21:33:49.063Z,3.53
2022-09-26T21:36:38.944Z,3.30
2022-09-26T21:39:25.322Z,2.93
2022-09-26T21:42:11.213Z,2.90
2022-09-26T21:45:02.968Z,3.07
2022-09-26T21:47:49.096Z,3.13
2022-09-26T21:50:35.163Z,2.73
2022-09-26T21:53:22.485Z,2.80
2022-09-26T21:56:12.929Z,3.20
2022-09-26T21:58:58.933Z,3.27
2022-09-26T22:01:44.585Z,3.03
2022-09-26T22:04:30.742Z,2.50
2022-09-26T22:07:17.317Z,3.03
2022-09-26T22:10:03.622Z,3.00
2022-09-26T22:12:51.556Z,2.77
2022-09-26T22:15:37.121Z,2.50
2022-09-26T22:18:22.857Z,2.93
2022-09-26T22:21:09.805Z,2.80
2022-09-26T22:23:55.951Z,5.10
2022-09-26T22:26:42.382Z,2.70
2022-09-26T22:29:28.905Z,2.70
2022-09-26T22:32:15.137Z,2.33
2022-09-26T22:35:01.323Z,2.40
2022-09-26T22:37:47.421Z,3.10
2022-09-26T22:40:33.726Z,6.77
2022-09-26T22:43:21.064Z,2.87
2022-09-26T22:46:08.728Z,3.60
2022-09-26T22:48:54.902Z,2.67
2022-09-26T22:51:40.993Z,3.30
2022-09-26T22:54:27.330Z,2.17
2022-09-26T22:57:13.259Z,3.40
2022-09-26T22:59:59.135Z,2.33
2022-09-26T23:02:45.017Z,4.70
2022-09-26T23:05:31.053Z,2.90
2022-09-26T23:08:17.358Z,2.83
2022-09-26T23:11:04.704Z,2.63
2022-09-26T23:13:51.486Z,3.50
2022-09-26T23:16:38.483Z,2.93
2022-09-26T23:19:24.847Z,2.83
2022-09-26T23:22:10.999Z,3.00
2022-09-26T23:24:57.286Z,2.97
2022-09-26T23:27:43.482Z,2.80
2022-09-26T23:30:29.534Z,3.13
2022-09-26T23:33:15.179Z,2.60
2022-09-26T23:36:01.562Z,2.53
2022-09-26T23:38:47.567Z,2.90
2022-09-26T23:41:33.441Z,2.57
2022-09-26T23:44:19.348Z,3.17
2022-09-26T23:47:05.705Z,2.80
2022-09-26T23:49:51.457Z,4.23
2022-09-26T23:52:37.359Z,2.70
2022-09-26T23:55:23.408Z,3.00
2022-09-26T23:58:09.593Z,2.93
